메인 페이지
METAR-TAF:

METAR-TAF

공항 :

안토파가스타, 칠레

위도: 23-26S, 경도: 070-26W, 고도: 135m

현재 날씨관측

예보는 15분 전, 20:00시(UTC)에 발표되었습니다.
남남서12kt
온도 15°C
습도 72%
기압 1014 hPa
시정 10km 이상
고도 2000ft 상공 구름 조금

METAR: SCFA 182000Z 21012KT 9999 FEW020 15/10 Q1014 NOSIG

시각: 17:15 (20:15 UTC)

예보

예보는 3 시간 59분 전, 16:16시(UTC)에 발표되었습니다.
예보 대상 시간: 18일 18시부터 19일 18시까지 (UTC)
남남서17kt
시정 10km 이상
고도 1600ft 상공 구름 보통
고도 30000ft 상공 구름 보통
전환 중
18일 22시부터 19일 00시까지 (UTC)
고도 1300ft 상공 구름 많음
전환 중
19일 03시부터 19일 05시까지 (UTC)
남남동6kt
일시적
19일 09시부터 19일 13시까지 (UTC)
남동4kt
전환 중
19일 14시부터 19일 15시까지 (UTC)
고도 1800ft 상공 구름 보통
전환 중
19일 16시부터 19일 18시까지 (UTC)
남남서10kt
고도 2000ft 상공 구름 보통

TAF: SCFA 181616Z 1818/1918 21017KT 9999 SCT016 SCT300 TX16/ 1818Z TN13/1906Z BECMG 1822/1900 BKN013 BECMG 1903/1905 16006KT TEMPO 1909/1913 13004KT BECMG 1914/1915 SCT018 BECMG 1916/1918 21010KT SCT020

4,000개 이상의 공항 관측 자료 및 예보 (METAR 및 TAF 보고).

지도상에서 검색 가능한 기상관측소가 노란 점과 빨간 점으로 표시되어 있습니다.

기상관측소 명을 보려면 표시 위로 마우스를 이동하세요.

날씨 관측과 예보를 보려면 클릭하세요.

지도 변경 : 확대하려면 엑스 표시가 있는 녹색 버튼, 축소하려면 빼기 표시가 있는 녹색 버튼, 다음 페이지의 지도를 보려면 녹색 화살표를 클릭하세요.


METAR-TAF: